createdAt,value
2022-08-17T00:00:49.536Z,23.30
2022-08-17T00:04:14.331Z,23.30
2022-08-17T00:07:38.883Z,23.30
2022-08-17T00:11:01.774Z,23.30
2022-08-17T00:14:23.809Z,23.30
2022-08-17T00:17:48.201Z,23.40
2022-08-17T00:21:11.902Z,23.40
2022-08-17T00:24:35.746Z,23.40
2022-08-17T00:27:58.121Z,23.40
2022-08-17T00:31:20.835Z,23.40
2022-08-17T00:34:42.842Z,23.40
2022-08-17T00:38:07.653Z,23.40
2022-08-17T00:41:29.790Z,23.30
2022-08-17T00:44:53.276Z,23.20
2022-08-17T00:48:27.203Z,23.20
2022-08-17T00:52:00.864Z,23.10
2022-08-17T00:55:25.328Z,23.00
2022-08-17T00:58:49.017Z,22.90
2022-08-17T01:02:14.950Z,22.90
2022-08-17T01:05:42.171Z,22.80
2022-08-17T01:09:04.994Z,22.70
2022-08-17T01:12:27.138Z,22.60
2022-08-17T01:16:07.646Z,22.60
2022-08-17T01:19:39.326Z,22.70
2022-08-17T01:23:01.915Z,22.70
2022-08-17T01:26:24.159Z,22.70
2022-08-17T01:29:49.406Z,22.70
2022-08-17T01:33:11.644Z,22.60
2022-08-17T01:36:33.865Z,22.60
2022-08-17T01:40:22.888Z,22.50
2022-08-17T01:44:03.510Z,22.50
2022-08-17T01:47:25.592Z,22.50
2022-08-17T01:50:51.902Z,22.40
2022-08-17T01:54:17.433Z,22.40
2022-08-17T01:57:39.480Z,22.30
2022-08-17T02:01:01.877Z,22.30
2022-08-17T02:04:24.241Z,22.30
2022-08-17T02:07:59.393Z,22.30
2022-08-17T02:11:22.805Z,22.20
2022-08-17T02:14:45.541Z,22.20
2022-08-17T02:18:08.730Z,22.30
2022-08-17T02:21:32.411Z,22.30
2022-08-17T02:24:58.499Z,22.30
2022-08-17T02:28:23.434Z,22.30
2022-08-17T02:31:45.558Z,22.30
2022-08-17T02:35:08.921Z,22.10
2022-08-17T02:38:34.133Z,22.20
2022-08-17T02:42:03.426Z,22.10
2022-08-17T02:45:26.637Z,22.10
2022-08-17T02:48:48.903Z,22.10
2022-08-17T02:52:10.878Z,22.00
2022-08-17T02:55:40.557Z,22.00
2022-08-17T02:59:02.551Z,21.90
2022-08-17T03:02:24.521Z,21.80
2022-08-17T03:05:49.159Z,21.80
2022-08-17T03:09:11.198Z,21.70
2022-08-17T03:12:36.423Z,21.60
2022-08-17T03:15:58.806Z,21.30
2022-08-17T03:19:20.790Z,21.20
2022-08-17T03:22:48.007Z,21.10
2022-08-17T03:26:16.295Z,21.00
2022-08-17T03:29:39.806Z,21.00
2022-08-17T03:33:03.999Z,21.00
2022-08-17T03:36:26.095Z,21.00
2022-08-17T03:39:48.179Z,21.00
2022-08-17T03:43:10.957Z,21.00
2022-08-17T03:46:51.607Z,21.00
2022-08-17T03:50:33.601Z,20.90
2022-08-17T03:54:16.837Z,20.90
2022-08-17T03:57:38.943Z,20.80
2022-08-17T04:01:01.406Z,20.80
2022-08-17T04:04:27.441Z,20.80
2022-08-17T04:07:50.016Z,20.70
2022-08-17T04:11:12.013Z,20.60
2022-08-17T04:14:36.505Z,20.50
2022-08-17T04:18:15.364Z,20.50
2022-08-17T04:21:37.625Z,20.50
2022-08-17T04:25:00.405Z,20.40
2022-08-17T04:28:22.423Z,20.40
2022-08-17T04:31:44.623Z,20.50
2022-08-17T04:35:06.883Z,20.40
2022-08-17T04:38:31.338Z,20.30
2022-08-17T04:42:17.033Z,20.30
2022-08-17T04:45:55.281Z,20.40
2022-08-17T04:49:18.642Z,20.50
2022-08-17T04:52:47.233Z,20.60
2022-08-17T04:56:16.234Z,20.70
2022-08-17T04:59:39.101Z,20.70
2022-08-17T05:03:01.179Z,20.80
2022-08-17T05:06:23.737Z,20.90
2022-08-17T05:09:46.222Z,21.10
2022-08-17T05:13:17.284Z,21.30
2022-08-17T05:16:39.365Z,21.70
2022-08-17T05:20:01.327Z,22.00
2022-08-17T05:23:25.634Z,22.40
2022-08-17T05:26:47.654Z,22.80
2022-08-17T05:30:12.493Z,23.20
2022-08-17T05:33:39.565Z,24.10
2022-08-17T05:37:03.650Z,25.50
2022-08-17T05:40:26.767Z,27.10
2022-08-17T05:43:56.548Z,28.20
2022-08-17T05:47:18.811Z,29.50
2022-08-17T05:51:03.661Z,30.50
2022-08-17T05:54:44.620Z,31.40
2022-08-17T05:58:09.672Z,32.10
2022-08-17T06:02:29.990Z,32.80
2022-08-17T06:06:01.326Z,34.00
2022-08-17T06:09:34.163Z,34.10
2022-08-17T06:13:24.332Z,33.80
2022-08-17T06:16:51.606Z,31.70
2022-08-17T06:20:15.997Z,29.30
2022-08-17T06:23:43.594Z,28.60
2022-08-17T06:27:27.608Z,28.40
2022-08-17T06:31:01.374Z,28.80
2022-08-17T06:34:23.761Z,28.80
2022-08-17T06:38:37.904Z,28.30
2022-08-17T06:42:59.919Z,27.70
2022-08-17T06:46:08.282Z,27.50
2022-08-17T06:49:55.577Z,27.50
2022-08-17T06:53:25.962Z,27.60
2022-08-17T06:56:57.350Z,27.80
2022-08-17T07:00:25.889Z,28.20
2022-08-17T07:04:16.891Z,28.40
2022-08-17T07:08:01.364Z,29.40
2022-08-17T07:11:28.165Z,31.70
2022-08-17T07:14:56.464Z,32.90
2022-08-17T07:18:18.522Z,34.40
2022-08-17T07:22:05.769Z,34.50
2022-08-17T07:25:30.772Z,34.50
2022-08-17T07:28:56.177Z,35.80
2022-08-17T07:32:27.800Z,36.30
2022-08-17T07:35:50.322Z,37.10
2022-08-17T07:39:12.434Z,36.50
2022-08-17T07:42:34.505Z,36.20
2022-08-17T07:46:30.310Z,36.20
2022-08-17T07:49:52.350Z,35.50
2022-08-17T07:53:24.523Z,35.70
2022-08-17T07:57:02.065Z,36.20
2022-08-17T08:00:31.792Z,36.00
2022-08-17T08:03:54.704Z,34.70
2022-08-17T08:07:17.640Z,34.90
2022-08-17T08:10:45.459Z,34.60
2022-08-17T08:14:31.120Z,35.90
2022-08-17T08:17:59.534Z,36.30
2022-08-17T08:21:24.432Z,35.20
2022-08-17T08:24:52.141Z,35.00
2022-08-17T08:28:23.382Z,34.80
2022-08-17T08:32:06.070Z,35.20
2022-08-17T08:36:04.200Z,35.40
2022-08-17T08:40:14.596Z,35.10
2022-08-17T08:43:53.156Z,36.70
2022-08-17T08:47:21.771Z,38.50
2022-08-17T08:51:21.616Z,37.50
2022-08-17T08:55:14.090Z,37.20
2022-08-17T08:58:42.767Z,37.90
2022-08-17T09:02:26.061Z,38.80
2022-08-17T09:06:33.273Z,39.30
2022-08-17T09:10:22.526Z,39.50
2022-08-17T09:14:21.193Z,36.60
2022-08-17T09:19:00.224Z,35.60
2022-08-17T09:21:58.530Z,36.50
2022-08-17T09:25:28.402Z,37.60
2022-08-17T09:28:54.027Z,37.60
2022-08-17T09:32:22.406Z,36.70
2022-08-17T09:36:07.471Z,36.90
2022-08-17T09:40:16.082Z,36.40
2022-08-17T09:43:50.853Z,36.20
2022-08-17T09:51:49.190Z,35.00
2022-08-17T09:55:11.505Z,35.60
2022-08-17T09:59:07.475Z,35.70
2022-08-17T10:02:40.542Z,35.70
2022-08-17T10:06:27.189Z,36.10
2022-08-17T10:10:14.236Z,36.60
2022-08-17T10:13:52.894Z,36.40
2022-08-17T10:17:29.630Z,35.90
2022-08-17T10:21:30.628Z,35.40
2022-08-17T10:25:22.809Z,34.30
2022-08-17T10:29:16.966Z,34.20
2022-08-17T10:32:46.231Z,33.80
2022-08-17T10:36:26.336Z,34.50
2022-08-17T10:40:27.916Z,35.60
2022-08-17T10:44:39.852Z,36.30
2022-08-17T10:48:05.116Z,36.70
2022-08-17T10:51:38.077Z,36.90
2022-08-17T10:55:03.214Z,36.00
2022-08-17T10:58:28.577Z,36.00
2022-08-17T11:02:09.058Z,35.90
2022-08-17T11:05:45.570Z,36.30
2022-08-17T11:09:39.587Z,37.10
2022-08-17T11:13:23.175Z,36.50
2022-08-17T11:17:15.357Z,36.10
2022-08-17T11:20:56.279Z,35.40
2022-08-17T11:24:30.606Z,34.60
2022-08-17T11:28:15.955Z,34.20
2022-08-17T11:31:44.631Z,33.70
2022-08-17T11:35:12.083Z,33.10
2022-08-17T11:38:46.369Z,33.80
2022-08-17T11:42:34.680Z,33.90
2022-08-17T11:46:02.525Z,34.20
2022-08-17T11:50:11.186Z,33.50
2022-08-17T11:53:39.267Z,33.10
2022-08-17T11:57:27.039Z,33.60
2022-08-17T12:00:56.534Z,33.90
2022-08-17T12:04:25.819Z,34.40
2022-08-17T12:07:54.266Z,35.10
2022-08-17T12:12:04.645Z,35.20
2022-08-17T12:15:28.635Z,35.30
2022-08-17T12:18:58.582Z,34.80
2022-08-17T12:22:33.330Z,34.90
2022-08-17T12:26:11.908Z,34.60
2022-08-17T12:29:39.160Z,33.80
2022-08-17T12:33:01.415Z,33.80
2022-08-17T12:36:26.327Z,34.00
2022-08-17T12:39:52.657Z,34.60
2022-08-17T12:43:26.682Z,34.60
2022-08-17T12:47:19.440Z,34.00
2022-08-17T12:50:45.883Z,32.90
2022-08-17T12:54:35.261Z,32.60
2022-08-17T12:57:59.709Z,33.00
2022-08-17T13:01:25.182Z,33.30
2022-08-17T13:04:47.783Z,33.90
2022-08-17T13:08:38.154Z,33.40
2022-08-17T13:12:02.871Z,33.20
2022-08-17T13:15:52.789Z,33.40
2022-08-17T13:19:29.725Z,33.60
2022-08-17T13:23:20.865Z,34.40
2022-08-17T13:26:42.814Z,34.80
2022-08-17T13:30:12.186Z,34.60
2022-08-17T13:33:43.609Z,34.60
2022-08-17T13:37:25.416Z,34.80
2022-08-17T13:40:53.323Z,34.80
2022-08-17T13:44:37.231Z,34.60
2022-08-17T13:48:13.829Z,33.90
2022-08-17T13:51:43.946Z,33.70
2022-08-17T13:55:16.474Z,33.10
2022-08-17T13:58:41.890Z,32.90
2022-08-17T14:02:06.303Z,32.80
2022-08-17T14:05:33.917Z,32.80
2022-08-17T14:09:02.452Z,32.30
2022-08-17T14:12:26.738Z,32.30
2022-08-17T14:15:54.912Z,32.00
2022-08-17T14:19:17.932Z,31.80
2022-08-17T14:22:46.509Z,32.00
2022-08-17T14:26:08.853Z,32.60
2022-08-17T14:29:34.293Z,33.20
2022-08-17T14:32:58.120Z,33.10
2022-08-17T14:36:20.356Z,32.80
2022-08-17T14:39:42.536Z,32.10
2022-08-17T14:43:04.628Z,32.00
2022-08-17T14:46:26.773Z,32.10
2022-08-17T14:49:49.092Z,32.10
2022-08-17T14:53:13.579Z,32.20
2022-08-17T14:56:38.084Z,32.20
2022-08-17T15:00:00.908Z,32.20
2022-08-17T15:03:23.678Z,32.50
2022-08-17T15:06:49.054Z,32.60
2022-08-17T15:10:13.422Z,32.40
2022-08-17T15:13:36.565Z,32.80
2022-08-17T15:17:14.816Z,33.10
2022-08-17T15:20:37.050Z,32.80
2022-08-17T15:23:59.167Z,32.80
2022-08-17T15:27:32.569Z,33.00
2022-08-17T15:30:55.181Z,33.30
2022-08-17T15:34:17.438Z,33.60
2022-08-17T15:37:40.487Z,33.70
2022-08-17T15:41:03.414Z,33.70
2022-08-17T15:44:32.470Z,33.30
2022-08-17T15:47:57.086Z,33.20
2022-08-17T15:51:20.888Z,33.00
2022-08-17T15:54:45.290Z,32.80
2022-08-17T15:58:08.682Z,32.70
2022-08-17T16:03:01.603Z,32.60
2022-08-17T16:05:17.533Z,32.50
2022-08-17T16:08:45.495Z,32.20
2022-08-17T16:12:16.772Z,32.00
2022-08-17T16:15:38.887Z,31.70
2022-08-17T16:19:00.902Z,31.50
2022-08-17T16:22:32.525Z,31.20
2022-08-17T16:25:54.771Z,31.00
2022-08-17T16:29:16.866Z,30.80
2022-08-17T16:32:39.223Z,30.60
2022-08-17T16:36:01.414Z,30.50
2022-08-17T16:39:25.551Z,30.60
2022-08-17T16:42:49.597Z,30.60
2022-08-17T16:46:12.355Z,30.60
2022-08-17T16:49:37.106Z,30.50
2022-08-17T16:53:11.819Z,30.40
2022-08-17T16:56:35.884Z,30.30
2022-08-17T16:59:58.287Z,30.20
2022-08-17T17:03:24.755Z,30.10
2022-08-17T17:07:25.759Z,30.00
2022-08-17T17:10:55.315Z,29.80
2022-08-17T17:14:29.577Z,29.60
2022-08-17T17:17:52.468Z,29.50
2022-08-17T17:21:25.850Z,29.40
2022-08-17T17:25:06.771Z,29.10
2022-08-17T17:28:46.790Z,28.90
2022-08-17T17:32:21.517Z,28.70
2022-08-17T17:35:57.537Z,28.50
2022-08-17T17:39:44.673Z,28.40
2022-08-17T17:43:37.037Z,28.00
2022-08-17T17:46:57.265Z,27.40
2022-08-17T17:50:24.770Z,26.70
2022-08-17T17:54:14.198Z,25.90
2022-08-17T17:58:02.621Z,25.30
2022-08-17T18:01:43.062Z,24.90
2022-08-17T18:05:23.396Z,24.60
2022-08-17T18:09:10.200Z,24.60
2022-08-17T18:12:54.393Z,24.60
2022-08-17T18:16:17.108Z,24.60
2022-08-17T18:19:39.990Z,24.20
2022-08-17T18:23:02.123Z,23.90
2022-08-17T18:26:34.002Z,23.70
2022-08-17T18:29:58.852Z,23.10
2022-08-17T18:33:26.997Z,23.00
2022-08-17T18:36:49.579Z,22.70
2022-08-17T18:40:18.605Z,22.70
2022-08-17T18:43:52.976Z,22.60
2022-08-17T18:47:22.754Z,22.50
2022-08-17T18:50:45.788Z,22.40
2022-08-17T18:54:24.373Z,22.40
2022-08-17T18:57:56.833Z,22.30
2022-08-17T19:01:21.078Z,22.20
2022-08-17T19:05:10.427Z,22.10
2022-08-17T19:08:35.284Z,22.20
2022-08-17T19:11:58.596Z,22.10
2022-08-17T19:15:45.317Z,22.10
2022-08-17T19:19:52.845Z,22.20
2022-08-17T19:23:19.151Z,22.30
2022-08-17T19:26:51.288Z,22.20
2022-08-17T19:30:20.437Z,22.10
2022-08-17T19:33:42.868Z,22.00
2022-08-17T19:37:59.482Z,22.10
2022-08-17T19:41:42.517Z,22.10
2022-08-17T19:45:29.447Z,22.00
2022-08-17T19:49:07.112Z,22.00
2022-08-17T19:52:59.988Z,22.00
2022-08-17T19:56:34.288Z,22.10
2022-08-17T20:00:11.340Z,22.10
2022-08-17T20:04:00.550Z,22.10
2022-08-17T20:07:30.316Z,22.20
2022-08-17T20:10:58.323Z,22.20
2022-08-17T20:14:25.500Z,22.20
2022-08-17T20:17:48.883Z,22.20
2022-08-17T20:21:30.502Z,22.10
2022-08-17T20:25:16.309Z,22.10
2022-08-17T20:29:14.774Z,22.10
2022-08-17T20:32:53.645Z,22.10
2022-08-17T20:36:24.892Z,22.10
2022-08-17T20:40:09.139Z,22.20
2022-08-17T20:43:34.936Z,22.10
2022-08-17T20:47:04.117Z,22.00
2022-08-17T20:50:31.781Z,21.90
2022-08-17T20:53:54.086Z,21.80
2022-08-17T20:57:43.890Z,21.70
2022-08-17T21:01:17.289Z,21.60
2022-08-17T21:04:53.325Z,21.50
2022-08-17T21:08:18.645Z,21.40
2022-08-17T21:11:56.624Z,21.30
2022-08-17T21:15:36.712Z,21.30
2022-08-17T21:19:08.711Z,21.20
2022-08-17T21:22:33.759Z,21.20
2022-08-17T21:26:12.816Z,21.20
2022-08-17T21:29:53.754Z,21.30
2022-08-17T21:33:25.242Z,21.30
2022-08-17T21:36:49.636Z,21.30
2022-08-17T21:40:14.221Z,21.30
2022-08-17T21:43:37.605Z,21.30
2022-08-17T21:47:25.708Z,21.20
2022-08-17T21:51:03.868Z,21.20
2022-08-17T21:54:38.959Z,21.20
2022-08-17T21:58:14.277Z,21.20
2022-08-17T22:01:43.090Z,21.20
2022-08-17T22:05:11.627Z,21.30
2022-08-17T22:08:33.971Z,21.30
2022-08-17T22:12:00.709Z,21.30
2022-08-17T22:15:23.961Z,21.30
2022-08-17T22:18:47.940Z,21.30
2022-08-17T22:22:57.296Z,21.30
2022-08-17T22:26:22.872Z,21.30
2022-08-17T22:29:53.257Z,21.50
2022-08-17T22:33:33.628Z,21.60
2022-08-17T22:37:29.294Z,21.70
2022-08-17T22:41:13.883Z,21.70
2022-08-17T22:44:48.597Z,21.70
2022-08-17T22:48:12.833Z,21.70
2022-08-17T22:51:36.360Z,21.50
2022-08-17T22:55:43.182Z,21.40
2022-08-17T22:59:20.583Z,21.40
2022-08-17T23:03:09.239Z,21.30
2022-08-17T23:06:36.318Z,21.20
2022-08-17T23:10:02.388Z,21.20
2022-08-17T23:13:24.747Z,21.20
2022-08-17T23:16:51.137Z,21.30
2022-08-17T23:20:15.379Z,21.40
2022-08-17T23:23:37.634Z,21.50
2022-08-17T23:27:00.079Z,21.40
2022-08-17T23:30:25.450Z,21.30
2022-08-17T23:33:48.292Z,21.30
2022-08-17T23:37:12.003Z,21.20
2022-08-17T23:40:34.240Z,21.20
2022-08-17T23:43:56.794Z,21.10
2022-08-17T23:47:19.073Z,21.20
2022-08-17T23:50:41.701Z,21.10
2022-08-17T23:54:11.742Z,21.10
2022-08-17T23:57:35.986Z,21.10
